Aérodrome :
LOGIN :

S'inscrire | Disclaimer

   EN    FR    IT 

 










Légende :    VFR   VFR Marginal   IFR   IFR Intensif   IFR Très Intensif
Visi : 
Plafond : 
>= 8 km
>= 3000ft
5 à 8 km
1000 à 3000 ft
1500m à 5 km
500 à 1000 ft
800 à 1500m
200 à 500 ft
< 800m
< 200 ft
Symboles :   Orages  Brouillard  Fortes neiges  Fortes précipitations  Vent > 20 kt
SIGMETs :   Divers  Orages  Givrage  Turbulence  Onde Orograph.  Cendres Volcan.







- Altitude de l'aérodrome : 1585 ft
- Code IATA : SIR


LSGS - Sion

DERNIER METAR :
  • 231550Z 25019KT 210V290 CAVOK 20/M07 Q1006

METARs EXPIRÉS :
  • 231520Z 25016KT 220V290 CAVOK 21/M08 Q1006
  • 231450Z 23011KT 210V280 CAVOK 20/M08 Q1006
  • 231420Z 24016KT 180V260 CAVOK 20/M08 Q1007
  • 231350Z VRB04G18KT CAVOK 19/M06 Q1007
  • 231320Z VRB04KT CAVOK 18/M04 Q1008
  • 231250Z 08003KT 050V120 CAVOK 17/M04 Q1009

TAF TAF LSGS
Valide du 23 à 15h jusqu'au 24 à 00h UTC


231425Z 2315/2324 22010G20KT CAVOK
BECMG 2319/2321 VRB03KT 9999 BKN090
Pas de NOTAMs connus pour ce terrain.



MET'MAP, la Météo Aéronautique d'un coup d'oeil ! - Copyright ORBIFLY Décembre 2007 - Disclaimer

ORBIFLY MET'MAP TEAM :

Programmation & Développement : Alexandra Zaïnal
Conception & Développement : Baudouin d'Aumeries
Co-Programmation & Développement : Marc-Olivier Méhu
Soutien technique & logistique : Manuel Goepfert

Contact : metmap@orbifly.com




SOURCES & CREDITS :

   NOAA